sensor_id;sensor_type;location;lat;lon;timestamp;P1;durP1;ratioP1;P2;durP2;ratioP2
31336;SDS011;22846;42.654;23.314;2022-11-30T00:01:51;7.25;;;5.47;;
31336;SDS011;22846;42.654;23.314;2022-11-30T00:04:16;7.45;;;5.60;;
31336;SDS011;22846;42.654;23.314;2022-11-30T00:06:42;8.20;;;5.50;;
31336;SDS011;22846;42.654;23.314;2022-11-30T00:09:07;8.15;;;5.00;;
31336;SDS011;22846;42.654;23.314;2022-11-30T00:11:33;6.68;;;4.80;;
31336;SDS011;22846;42.654;23.314;2022-11-30T00:13:58;5.68;;;4.55;;
31336;SDS011;22846;42.654;23.314;2022-11-30T00:16:24;6.38;;;4.57;;
31336;SDS011;22846;42.654;23.314;2022-11-30T00:18:51;6.68;;;4.45;;
31336;SDS011;22846;42.654;23.314;2022-11-30T00:21:17;5.18;;;4.15;;
31336;SDS011;22846;42.654;23.314;2022-11-30T00:23:43;5.53;;;4.32;;
31336;SDS011;22846;42.654;23.314;2022-11-30T00:26:15;6.40;;;4.70;;
31336;SDS011;22846;42.654;23.314;2022-11-30T00:28:42;6.90;;;4.80;;
31336;SDS011;22846;42.654;23.314;2022-11-30T00:31:10;5.88;;;4.53;;
31336;SDS011;22846;42.654;23.314;2022-11-30T00:33:37;5.20;;;3.95;;
31336;SDS011;22846;42.654;23.314;2022-11-30T00:36:07;6.75;;;4.40;;
31336;SDS011;22846;42.654;23.314;2022-11-30T00:38:36;5.95;;;4.32;;
31336;SDS011;22846;42.654;23.314;2022-11-30T00:41:01;7.18;;;4.40;;
31336;SDS011;22846;42.654;23.314;2022-11-30T00:43:27;5.18;;;4.50;;
31336;SDS011;22846;42.654;23.314;2022-11-30T00:45:53;5.32;;;4.22;;
31336;SDS011;22846;42.654;23.314;2022-11-30T00:48:18;5.13;;;4.03;;
31336;SDS011;22846;42.654;23.314;2022-11-30T00:50:44;4.20;;;3.47;;
31336;SDS011;22846;42.654;23.314;2022-11-30T00:53:09;5.95;;;3.70;;
31336;SDS011;22846;42.654;23.314;2022-11-30T00:55:35;5.30;;;3.72;;
31336;SDS011;22846;42.654;23.314;2022-11-30T00:58:00;5.07;;;3.80;;
31336;SDS011;22846;42.654;23.314;2022-11-30T01:00:26;4.50;;;3.58;;
31336;SDS011;22846;42.654;23.314;2022-11-30T01:02:52;5.20;;;4.00;;
31336;SDS011;22846;42.654;23.314;2022-11-30T01:05:19;5.38;;;3.42;;
31336;SDS011;22846;42.654;23.314;2022-11-30T01:07:45;4.38;;;3.50;;
31336;SDS011;22846;42.654;23.314;2022-11-30T01:10:10;4.30;;;3.45;;
31336;SDS011;22846;42.654;23.314;2022-11-30T01:12:35;4.05;;;3.35;;
31336;SDS011;22846;42.654;23.314;2022-11-30T01:15:01;4.68;;;3.22;;
31336;SDS011;22846;42.654;23.314;2022-11-30T01:17:26;5.07;;;3.50;;
31336;SDS011;22846;42.654;23.314;2022-11-30T01:19:52;4.05;;;3.10;;
31336;SDS011;22846;42.654;23.314;2022-11-30T01:22:17;4.18;;;3.13;;
31336;SDS011;22846;42.654;23.314;2022-11-30T01:24:42;4.05;;;3.15;;
31336;SDS011;22846;42.654;23.314;2022-11-30T01:27:08;3.88;;;3.22;;
31336;SDS011;22846;42.654;23.314;2022-11-30T01:29:33;3.92;;;3.00;;
31336;SDS011;22846;42.654;23.314;2022-11-30T01:31:59;3.63;;;3.10;;
31336;SDS011;22846;42.654;23.314;2022-11-30T01:34:24;3.40;;;3.08;;
31336;SDS011;22846;42.654;23.314;2022-11-30T01:36:49;3.60;;;2.80;;
31336;SDS011;22846;42.654;23.314;2022-11-30T01:39:15;3.40;;;2.78;;
31336;SDS011;22846;42.654;23.314;2022-11-30T01:41:40;5.05;;;3.05;;
31336;SDS011;22846;42.654;23.314;2022-11-30T01:46:44;3.35;;;2.78;;
31336;SDS011;22846;42.654;23.314;2022-11-30T01:54:14;3.28;;;2.58;;
31336;SDS011;22846;42.654;23.314;2022-11-30T01:56:44;2.85;;;2.47;;
31336;SDS011;22846;42.654;23.314;2022-11-30T01:59:14;3.40;;;2.60;;
31336;SDS011;22846;42.654;23.314;2022-11-30T02:01:41;3.22;;;2.53;;
31336;SDS011;22846;42.654;23.314;2022-11-30T02:04:10;2.80;;;2.40;;
31336;SDS011;22846;42.654;23.314;2022-11-30T02:06:55;3.47;;;2.60;;
31336;SDS011;22846;42.654;23.314;2022-11-30T02:09:21;2.92;;;2.35;;
31336;SDS011;22846;42.654;23.314;2022-11-30T02:11:47;2.95;;;2.45;;
31336;SDS011;22846;42.654;23.314;2022-11-30T02:28:28;3.33;;;2.22;;
31336;SDS011;22846;42.654;23.314;2022-11-30T02:30:57;2.80;;;2.20;;
31336;SDS011;22846;42.654;23.314;2022-11-30T02:33:25;2.15;;;1.75;;
31336;SDS011;22846;42.654;23.314;2022-11-30T02:35:55;3.40;;;2.22;;
31336;SDS011;22846;42.654;23.314;2022-11-30T02:38:22;2.25;;;1.90;;
31336;SDS011;22846;42.654;23.314;2022-11-30T02:40:50;3.85;;;2.20;;
31336;SDS011;22846;42.654;23.314;2022-11-30T02:43:16;2.30;;;2.00;;
31336;SDS011;22846;42.654;23.314;2022-11-30T02:48:27;2.58;;;1.83;;
31336;SDS011;22846;42.654;23.314;2022-11-30T02:51:04;2.22;;;1.90;;
31336;SDS011;22846;42.654;23.314;2022-11-30T02:53:32;2.53;;;1.90;;
31336;SDS011;22846;42.654;23.314;2022-11-30T02:55:58;2.63;;;1.80;;
31336;SDS011;22846;42.654;23.314;2022-11-30T02:58:23;2.45;;;2.08;;
31336;SDS011;22846;42.654;23.314;2022-11-30T03:00:49;2.45;;;1.88;;
31336;SDS011;22846;42.654;23.314;2022-11-30T03:03:14;2.35;;;1.95;;
31336;SDS011;22846;42.654;23.314;2022-11-30T03:05:40;2.67;;;1.63;;
31336;SDS011;22846;42.654;23.314;2022-11-30T03:08:05;3.17;;;1.70;;
31336;SDS011;22846;42.654;23.314;2022-11-30T03:10:30;2.40;;;1.67;;
31336;SDS011;22846;42.654;23.314;2022-11-30T03:12:56;2.58;;;1.80;;
31336;SDS011;22846;42.654;23.314;2022-11-30T03:15:22;1.65;;;1.50;;
31336;SDS011;22846;42.654;23.314;2022-11-30T03:17:48;1.95;;;1.63;;
31336;SDS011;22846;42.654;23.314;2022-11-30T03:20:13;2.28;;;1.50;;
31336;SDS011;22846;42.654;23.314;2022-11-30T03:22:39;1.88;;;1.45;;
31336;SDS011;22846;42.654;23.314;2022-11-30T03:25:04;2.60;;;1.80;;
31336;SDS011;22846;42.654;23.314;2022-11-30T03:27:30;2.03;;;1.67;;
31336;SDS011;22846;42.654;23.314;2022-11-30T03:29:55;1.70;;;1.60;;
31336;SDS011;22846;42.654;23.314;2022-11-30T03:32:21;2.25;;;1.60;;
31336;SDS011;22846;42.654;23.314;2022-11-30T03:34:46;1.95;;;1.50;;
31336;SDS011;22846;42.654;23.314;2022-11-30T03:37:11;1.45;;;1.25;;
31336;SDS011;22846;42.654;23.314;2022-11-30T03:39:37;1.55;;;1.45;;
31336;SDS011;22846;42.654;23.314;2022-11-30T03:42:02;1.85;;;1.40;;
31336;SDS011;22846;42.654;23.314;2022-11-30T03:44:28;1.60;;;1.40;;
31336;SDS011;22846;42.654;23.314;2022-11-30T03:46:54;2.13;;;1.65;;
31336;SDS011;22846;42.654;23.314;2022-11-30T03:49:19;1.40;;;1.30;;
31336;SDS011;22846;42.654;23.314;2022-11-30T03:51:44;1.88;;;1.60;;
31336;SDS011;22846;42.654;23.314;2022-11-30T03:54:10;1.80;;;1.40;;
31336;SDS011;22846;42.654;23.314;2022-11-30T03:56:35;1.65;;;1.15;;
31336;SDS011;22846;42.654;23.314;2022-11-30T03:59:01;1.90;;;1.30;;
31336;SDS011;22846;42.654;23.314;2022-11-30T04:01:27;1.30;;;1.20;;
31336;SDS011;22846;42.654;23.314;2022-11-30T04:03:52;2.92;;;1.27;;
31336;SDS011;22846;42.654;23.314;2022-11-30T04:06:18;1.30;;;1.10;;
31336;SDS011;22846;42.654;23.314;2022-11-30T04:08:45;1.17;;;1.08;;
31336;SDS011;22846;42.654;23.314;2022-11-30T04:11:11;1.65;;;1.20;;
31336;SDS011;22846;42.654;23.314;2022-11-30T04:13:37;1.02;;;0.85;;
31336;SDS011;22846;42.654;23.314;2022-11-30T04:16:03;1.40;;;1.20;;
31336;SDS011;22846;42.654;23.314;2022-11-30T04:18:30;1.73;;;1.27;;
31336;SDS011;22846;42.654;23.314;2022-11-30T04:20:56;1.38;;;1.27;;
31336;SDS011;22846;42.654;23.314;2022-11-30T04:23:23;1.27;;;1.13;;
31336;SDS011;22846;42.654;23.314;2022-11-30T04:25:49;1.10;;;1.00;;
31336;SDS011;22846;42.654;23.314;2022-11-30T04:28:16;1.65;;;1.15;;
31336;SDS011;22846;42.654;23.314;2022-11-30T04:30:42;1.10;;;1.00;;
31336;SDS011;22846;42.654;23.314;2022-11-30T04:33:08;1.20;;;0.93;;
31336;SDS011;22846;42.654;23.314;2022-11-30T04:35:37;1.10;;;0.95;;
31336;SDS011;22846;42.654;23.314;2022-11-30T04:38:05;0.80;;;0.80;;
31336;SDS011;22846;42.654;23.314;2022-11-30T04:40:31;0.90;;;0.80;;
31336;SDS011;22846;42.654;23.314;2022-11-30T04:42:56;1.30;;;0.93;;
31336;SDS011;22846;42.654;23.314;2022-11-30T04:45:22;1.33;;;1.02;;
31336;SDS011;22846;42.654;23.314;2022-11-30T04:47:47;1.10;;;0.90;;
31336;SDS011;22846;42.654;23.314;2022-11-30T04:50:12;1.20;;;1.10;;
31336;SDS011;22846;42.654;23.314;2022-11-30T04:52:38;1.00;;;0.90;;
31336;SDS011;22846;42.654;23.314;2022-11-30T04:55:03;1.08;;;0.95;;
31336;SDS011;22846;42.654;23.314;2022-11-30T04:57:29;1.38;;;0.77;;
31336;SDS011;22846;42.654;23.314;2022-11-30T04:59:55;0.80;;;0.80;;
31336;SDS011;22846;42.654;23.314;2022-11-30T05:02:21;2.03;;;0.68;;
31336;SDS011;22846;42.654;23.314;2022-11-30T05:04:46;1.58;;;1.00;;
31336;SDS011;22846;42.654;23.314;2022-11-30T05:07:12;3.10;;;1.10;;
31336;SDS011;22846;42.654;23.314;2022-11-30T05:09:37;3.47;;;1.50;;
31336;SDS011;22846;42.654;23.314;2022-11-30T05:12:02;8.45;;;2.45;;
31336;SDS011;22846;42.654;23.314;2022-11-30T05:14:28;19.65;;;9.55;;
31336;SDS011;22846;42.654;23.314;2022-11-30T05:16:53;19.50;;;9.10;;
31336;SDS011;22846;42.654;23.314;2022-11-30T05:19:19;15.57;;;7.45;;
31336;SDS011;22846;42.654;23.314;2022-11-30T05:21:44;10.75;;;5.07;;
31336;SDS011;22846;42.654;23.314;2022-11-30T05:24:10;14.35;;;5.95;;
31336;SDS011;22846;42.654;23.314;2022-11-30T05:26:35;12.35;;;4.47;;
31336;SDS011;22846;42.654;23.314;2022-11-30T05:29:02;11.13;;;4.13;;
31336;SDS011;22846;42.654;23.314;2022-11-30T05:31:28;8.23;;;3.63;;
31336;SDS011;22846;42.654;23.314;2022-11-30T05:33:54;9.60;;;3.42;;
31336;SDS011;22846;42.654;23.314;2022-11-30T05:36:19;12.02;;;3.30;;
31336;SDS011;22846;42.654;23.314;2022-11-30T05:38:45;11.80;;;3.25;;
31336;SDS011;22846;42.654;23.314;2022-11-30T05:41:12;14.70;;;2.97;;
31336;SDS011;22846;42.654;23.314;2022-11-30T05:43:37;17.77;;;3.22;;
31336;SDS011;22846;42.654;23.314;2022-11-30T05:46:03;8.95;;;3.15;;
31336;SDS011;22846;42.654;23.314;2022-11-30T05:48:31;9.60;;;3.28;;
31336;SDS011;22846;42.654;23.314;2022-11-30T05:51:03;9.68;;;3.15;;
31336;SDS011;22846;42.654;23.314;2022-11-30T05:53:32;10.95;;;2.80;;
31336;SDS011;22846;42.654;23.314;2022-11-30T05:56:05;11.90;;;3.00;;
31336;SDS011;22846;42.654;23.314;2022-11-30T05:58:33;5.88;;;2.55;;
31336;SDS011;22846;42.654;23.314;2022-11-30T06:00:59;8.88;;;3.08;;
31336;SDS011;22846;42.654;23.314;2022-11-30T06:03:26;5.43;;;2.78;;
31336;SDS011;22846;42.654;23.314;2022-11-30T06:05:52;5.38;;;2.30;;
31336;SDS011;22846;42.654;23.314;2022-11-30T06:08:18;8.55;;;2.65;;
31336;SDS011;22846;42.654;23.314;2022-11-30T06:10:44;7.00;;;2.30;;
31336;SDS011;22846;42.654;23.314;2022-11-30T06:13:09;7.65;;;2.75;;
31336;SDS011;22846;42.654;23.314;2022-11-30T06:15:35;5.05;;;2.35;;
31336;SDS011;22846;42.654;23.314;2022-11-30T06:18:02;6.20;;;2.13;;
31336;SDS011;22846;42.654;23.314;2022-11-30T06:20:27;5.78;;;2.40;;
31336;SDS011;22846;42.654;23.314;2022-11-30T06:22:53;4.57;;;1.90;;
31336;SDS011;22846;42.654;23.314;2022-11-30T06:25:19;7.57;;;2.53;;
31336;SDS011;22846;42.654;23.314;2022-11-30T06:27:44;6.75;;;2.13;;
31336;SDS011;22846;42.654;23.314;2022-11-30T06:30:10;5.95;;;1.90;;
31336;SDS011;22846;42.654;23.314;2022-11-30T06:32:36;8.27;;;2.47;;
31336;SDS011;22846;42.654;23.314;2022-11-30T06:35:01;4.82;;;1.77;;
31336;SDS011;22846;42.654;23.314;2022-11-30T06:37:27;6.10;;;2.00;;
31336;SDS011;22846;42.654;23.314;2022-11-30T06:39:52;7.00;;;2.00;;
31336;SDS011;22846;42.654;23.314;2022-11-30T06:42:18;3.70;;;1.63;;
31336;SDS011;22846;42.654;23.314;2022-11-30T06:44:43;3.90;;;1.60;;
31336;SDS011;22846;42.654;23.314;2022-11-30T06:47:09;7.20;;;1.80;;
31336;SDS011;22846;42.654;23.314;2022-11-30T06:49:35;3.92;;;1.73;;
31336;SDS011;22846;42.654;23.314;2022-11-30T06:52:01;5.75;;;1.90;;
31336;SDS011;22846;42.654;23.314;2022-11-30T06:54:26;3.78;;;1.55;;
31336;SDS011;22846;42.654;23.314;2022-11-30T06:56:51;3.97;;;2.00;;
31336;SDS011;22846;42.654;23.314;2022-11-30T06:59:17;6.25;;;1.80;;
31336;SDS011;22846;42.654;23.314;2022-11-30T07:01:42;4.25;;;1.50;;
31336;SDS011;22846;42.654;23.314;2022-11-30T07:04:07;4.22;;;1.67;;
31336;SDS011;22846;42.654;23.314;2022-11-30T07:06:33;6.00;;;1.40;;
31336;SDS011;22846;42.654;23.314;2022-11-30T07:08:58;2.53;;;1.35;;
31336;SDS011;22846;42.654;23.314;2022-11-30T07:11:24;3.67;;;1.50;;
31336;SDS011;22846;42.654;23.314;2022-11-30T07:13:49;3.72;;;1.55;;
31336;SDS011;22846;42.654;23.314;2022-11-30T07:16:15;6.07;;;1.48;;
31336;SDS011;22846;42.654;23.314;2022-11-30T07:18:40;3.40;;;1.38;;
31336;SDS011;22846;42.654;23.314;2022-11-30T07:21:06;3.58;;;1.70;;
31336;SDS011;22846;42.654;23.314;2022-11-30T07:23:32;4.35;;;1.80;;
31336;SDS011;22846;42.654;23.314;2022-11-30T07:26:16;2.72;;;1.27;;
31336;SDS011;22846;42.654;23.314;2022-11-30T07:28:42;3.50;;;1.40;;
31336;SDS011;22846;42.654;23.314;2022-11-30T07:33:49;2.72;;;1.20;;
31336;SDS011;22846;42.654;23.314;2022-11-30T07:36:15;3.42;;;1.17;;
31336;SDS011;22846;42.654;23.314;2022-11-30T07:38:42;2.03;;;1.35;;
31336;SDS011;22846;42.654;23.314;2022-11-30T07:41:08;2.65;;;1.30;;
31336;SDS011;22846;42.654;23.314;2022-11-30T07:43:33;2.45;;;1.38;;
31336;SDS011;22846;42.654;23.314;2022-11-30T07:46:00;2.83;;;1.27;;
31336;SDS011;22846;42.654;23.314;2022-11-30T07:48:27;2.65;;;1.42;;
31336;SDS011;22846;42.654;23.314;2022-11-30T07:50:53;1.98;;;1.08;;
31336;SDS011;22846;42.654;23.314;2022-11-30T07:53:19;1.77;;;1.10;;
31336;SDS011;22846;42.654;23.314;2022-11-30T07:55:44;1.75;;;1.20;;
31336;SDS011;22846;42.654;23.314;2022-11-30T07:58:10;1.95;;;1.08;;
31336;SDS011;22846;42.654;23.314;2022-11-30T08:00:36;4.93;;;1.30;;
31336;SDS011;22846;42.654;23.314;2022-11-30T08:03:02;2.40;;;1.20;;
31336;SDS011;22846;42.654;23.314;2022-11-30T08:05:27;2.72;;;1.25;;
31336;SDS011;22846;42.654;23.314;2022-11-30T08:07:53;2.17;;;1.17;;
31336;SDS011;22846;42.654;23.314;2022-11-30T08:10:19;3.30;;;1.13;;
31336;SDS011;22846;42.654;23.314;2022-11-30T08:12:45;2.03;;;1.27;;
31336;SDS011;22846;42.654;23.314;2022-11-30T08:15:11;2.55;;;1.20;;
31336;SDS011;22846;42.654;23.314;2022-11-30T08:17:38;3.75;;;1.20;;
31336;SDS011;22846;42.654;23.314;2022-11-30T08:20:04;2.85;;;1.10;;
31336;SDS011;22846;42.654;23.314;2022-11-30T08:22:32;2.22;;;1.00;;
31336;SDS011;22846;42.654;23.314;2022-11-30T08:24:58;2.10;;;1.17;;
31336;SDS011;22846;42.654;23.314;2022-11-30T08:27:24;2.10;;;1.17;;
31336;SDS011;22846;42.654;23.314;2022-11-30T08:29:49;1.15;;;0.90;;
31336;SDS011;22846;42.654;23.314;2022-11-30T08:32:15;2.60;;;1.25;;
31336;SDS011;22846;42.654;23.314;2022-11-30T08:34:40;2.22;;;1.20;;
31336;SDS011;22846;42.654;23.314;2022-11-30T08:37:06;1.63;;;1.00;;
31336;SDS011;22846;42.654;23.314;2022-11-30T08:39:31;2.45;;;0.90;;
31336;SDS011;22846;42.654;23.314;2022-11-30T08:41:58;1.92;;;0.95;;
31336;SDS011;22846;42.654;23.314;2022-11-30T08:44:24;1.90;;;0.95;;
31336;SDS011;22846;42.654;23.314;2022-11-30T08:46:50;4.85;;;1.10;;
31336;SDS011;22846;42.654;23.314;2022-11-30T08:49:15;2.78;;;1.15;;
31336;SDS011;22846;42.654;23.314;2022-11-30T08:51:40;2.72;;;0.80;;
31336;SDS011;22846;42.654;23.314;2022-11-30T08:54:06;2.13;;;1.08;;
31336;SDS011;22846;42.654;23.314;2022-11-30T08:56:31;1.58;;;1.00;;
31336;SDS011;22846;42.654;23.314;2022-11-30T08:58:57;3.15;;;0.98;;
31336;SDS011;22846;42.654;23.314;2022-11-30T09:01:23;1.35;;;0.90;;
31336;SDS011;22846;42.654;23.314;2022-11-30T09:03:53;1.48;;;0.93;;
31336;SDS011;22846;42.654;23.314;2022-11-30T09:06:21;1.80;;;1.00;;
31336;SDS011;22846;42.654;23.314;2022-11-30T09:08:49;2.10;;;0.82;;
31336;SDS011;22846;42.654;23.314;2022-11-30T09:11:17;1.10;;;0.93;;
31336;SDS011;22846;42.654;23.314;2022-11-30T09:13:44;2.05;;;0.95;;
31336;SDS011;22846;42.654;23.314;2022-11-30T09:16:11;2.08;;;1.05;;
31336;SDS011;22846;42.654;23.314;2022-11-30T09:18:37;2.05;;;0.90;;
31336;SDS011;22846;42.654;23.314;2022-11-30T09:21:04;1.73;;;0.88;;
31336;SDS011;22846;42.654;23.314;2022-11-30T09:23:33;2.13;;;1.00;;
31336;SDS011;22846;42.654;23.314;2022-11-30T09:26:00;1.20;;;0.85;;
31336;SDS011;22846;42.654;23.314;2022-11-30T09:28:27;1.27;;;0.80;;
31336;SDS011;22846;42.654;23.314;2022-11-30T09:31:03;2.55;;;1.00;;
31336;SDS011;22846;42.654;23.314;2022-11-30T09:33:31;0.93;;;0.70;;
31336;SDS011;22846;42.654;23.314;2022-11-30T09:36:01;1.52;;;0.88;;
31336;SDS011;22846;42.654;23.314;2022-11-30T09:38:29;2.55;;;0.85;;
31336;SDS011;22846;42.654;23.314;2022-11-30T09:40:56;1.30;;;0.82;;
31336;SDS011;22846;42.654;23.314;2022-11-30T09:46:06;1.40;;;0.70;;
31336;SDS011;22846;42.654;23.314;2022-11-30T09:51:27;1.00;;;0.88;;
31336;SDS011;22846;42.654;23.314;2022-11-30T09:54:02;1.83;;;0.82;;
31336;SDS011;22846;42.654;23.314;2022-11-30T09:56:34;1.08;;;0.75;;
31336;SDS011;22846;42.654;23.314;2022-11-30T10:01:53;1.75;;;0.80;;
31336;SDS011;22846;42.654;23.314;2022-11-30T10:04:24;1.00;;;0.80;;
31336;SDS011;22846;42.654;23.314;2022-11-30T10:10:03;0.80;;;0.73;;
31336;SDS011;22846;42.654;23.314;2022-11-30T10:12:43;2.05;;;0.68;;
31336;SDS011;22846;42.654;23.314;2022-11-30T10:23:48;0.98;;;0.73;;
31336;SDS011;22846;42.654;23.314;2022-11-30T10:26:29;2.80;;;0.80;;
31336;SDS011;22846;42.654;23.314;2022-11-30T10:29:20;1.08;;;0.82;;
31336;SDS011;22846;42.654;23.314;2022-11-30T10:31:49;2.55;;;0.70;;
31336;SDS011;22846;42.654;23.314;2022-11-30T10:34:42;0.73;;;0.65;;
31336;SDS011;22846;42.654;23.314;2022-11-30T10:37:15;1.33;;;0.68;;
31336;SDS011;22846;42.654;23.314;2022-11-30T10:45:05;3.25;;;0.70;;
31336;SDS011;22846;42.654;23.314;2022-11-30T10:47:36;5.38;;;3.58;;
31336;SDS011;22846;42.654;23.314;2022-11-30T10:50:15;36.92;;;24.48;;
31336;SDS011;22846;42.654;23.314;2022-11-30T10:52:50;54.00;;;35.95;;
31336;SDS011;22846;42.654;23.314;2022-11-30T10:55:19;53.03;;;35.92;;
31336;SDS011;22846;42.654;23.314;2022-11-30T10:57:47;47.60;;;32.17;;
31336;SDS011;22846;42.654;23.314;2022-11-30T11:00:15;42.13;;;29.73;;
31336;SDS011;22846;42.654;23.314;2022-11-30T11:02:46;44.50;;;30.63;;
31336;SDS011;22846;42.654;23.314;2022-11-30T11:07:47;36.45;;;24.65;;
31336;SDS011;22846;42.654;23.314;2022-11-30T11:10:16;60.53;;;40.88;;
31336;SDS011;22846;42.654;23.314;2022-11-30T11:12:51;77.68;;;52.75;;
31336;SDS011;22846;42.654;23.314;2022-11-30T11:15:22;72.72;;;49.80;;
31336;SDS011;22846;42.654;23.314;2022-11-30T11:17:49;68.43;;;46.58;;
31336;SDS011;22846;42.654;23.314;2022-11-30T11:20:35;63.17;;;42.78;;
31336;SDS011;22846;42.654;23.314;2022-11-30T11:23:03;51.72;;;34.25;;
31336;SDS011;22846;42.654;23.314;2022-11-30T11:25:36;56.00;;;37.45;;
31336;SDS011;22846;42.654;23.314;2022-11-30T11:28:11;54.55;;;36.55;;
31336;SDS011;22846;42.654;23.314;2022-11-30T11:30:39;51.30;;;35.63;;
31336;SDS011;22846;42.654;23.314;2022-11-30T11:38:46;44.55;;;31.27;;
31336;SDS011;22846;42.654;23.314;2022-11-30T11:41:05;44.53;;;29.48;;
31336;SDS011;22846;42.654;23.314;2022-11-30T11:43:54;45.35;;;29.60;;
31336;SDS011;22846;42.654;23.314;2022-11-30T11:47:00;41.67;;;27.73;;
31336;SDS011;22846;42.654;23.314;2022-11-30T11:49:36;39.38;;;26.65;;
31336;SDS011;22846;42.654;23.314;2022-11-30T11:52:03;38.30;;;26.23;;
31336;SDS011;22846;42.654;23.314;2022-11-30T11:54:38;37.15;;;25.85;;
31336;SDS011;22846;42.654;23.314;2022-11-30T11:57:09;34.67;;;23.90;;
31336;SDS011;22846;42.654;23.314;2022-11-30T12:07:34;88.78;;;57.78;;
31336;SDS011;22846;42.654;23.314;2022-11-30T12:12:58;78.05;;;52.00;;
31336;SDS011;22846;42.654;23.314;2022-11-30T12:15:31;71.97;;;49.08;;
31336;SDS011;22846;42.654;23.314;2022-11-30T12:18:07;70.88;;;46.70;;
31336;SDS011;22846;42.654;23.314;2022-11-30T12:20:57;64.18;;;44.60;;
31336;SDS011;22846;42.654;23.314;2022-11-30T12:29:22;62.70;;;42.40;;
31336;SDS011;22846;42.654;23.314;2022-11-30T12:35:01;56.25;;;38.47;;
31336;SDS011;22846;42.654;23.314;2022-11-30T12:37:46;54.03;;;36.25;;
31336;SDS011;22846;42.654;23.314;2022-11-30T12:43:13;44.45;;;30.02;;
31336;SDS011;22846;42.654;23.314;2022-11-30T12:45:54;82.85;;;56.75;;
31336;SDS011;22846;42.654;23.314;2022-11-30T12:48:39;95.13;;;64.57;;
31336;SDS011;22846;42.654;23.314;2022-11-30T12:51:29;85.50;;;57.67;;
31336;SDS011;22846;42.654;23.314;2022-11-30T12:54:12;86.55;;;57.45;;
31336;SDS011;22846;42.654;23.314;2022-11-30T12:56:41;78.80;;;51.03;;
31336;SDS011;22846;42.654;23.314;2022-11-30T13:04:18;77.97;;;52.85;;
31336;SDS011;22846;42.654;23.314;2022-11-30T13:06:54;118.68;;;81.22;;
31336;SDS011;22846;42.654;23.314;2022-11-30T13:12:12;104.88;;;74.05;;
31336;SDS011;22846;42.654;23.314;2022-11-30T13:14:43;107.03;;;73.95;;
31336;SDS011;22846;42.654;23.314;2022-11-30T13:17:15;100.68;;;70.45;;
31336;SDS011;22846;42.654;23.314;2022-11-30T13:19:51;96.97;;;69.47;;
31336;SDS011;22846;42.654;23.314;2022-11-30T13:25:23;90.72;;;62.95;;
31336;SDS011;22846;42.654;23.314;2022-11-30T13:28:02;84.15;;;57.88;;
31336;SDS011;22846;42.654;23.314;2022-11-30T13:30:42;81.18;;;58.13;;
31336;SDS011;22846;42.654;23.314;2022-11-30T13:39:08;76.32;;;51.22;;
31336;SDS011;22846;42.654;23.314;2022-11-30T13:49:44;62.95;;;44.42;;
31336;SDS011;22846;42.654;23.314;2022-11-30T13:52:13;57.92;;;42.03;;
31336;SDS011;22846;42.654;23.314;2022-11-30T13:59:52;85.80;;;60.55;;
31336;SDS011;22846;42.654;23.314;2022-11-30T14:07:39;76.35;;;53.38;;
31336;SDS011;22846;42.654;23.314;2022-11-30T14:10:25;75.43;;;52.75;;
31336;SDS011;22846;42.654;23.314;2022-11-30T14:15:50;70.88;;;51.15;;
31336;SDS011;22846;42.654;23.314;2022-11-30T14:20:52;64.47;;;47.13;;
31336;SDS011;22846;42.654;23.314;2022-11-30T14:23:30;65.32;;;47.40;;
31336;SDS011;22846;42.654;23.314;2022-11-30T14:26:06;64.03;;;44.55;;
31336;SDS011;22846;42.654;23.314;2022-11-30T14:28:39;56.13;;;41.72;;
31336;SDS011;22846;42.654;23.314;2022-11-30T14:31:14;56.30;;;40.60;;
31336;SDS011;22846;42.654;23.314;2022-11-30T14:36:47;51.70;;;36.97;;
31336;SDS011;22846;42.654;23.314;2022-11-30T14:39:23;52.90;;;37.45;;
31336;SDS011;22846;42.654;23.314;2022-11-30T14:42:01;47.83;;;35.22;;
31336;SDS011;22846;42.654;23.314;2022-11-30T14:44:32;46.15;;;34.97;;
31336;SDS011;22846;42.654;23.314;2022-11-30T14:49:50;43.38;;;31.88;;
31336;SDS011;22846;42.654;23.314;2022-11-30T15:00:19;42.25;;;28.80;;
31336;SDS011;22846;42.654;23.314;2022-11-30T15:02:46;35.30;;;26.38;;
31336;SDS011;22846;42.654;23.314;2022-11-30T15:05:15;36.35;;;26.95;;
31336;SDS011;22846;42.654;23.314;2022-11-30T15:07:44;31.75;;;23.80;;
31336;SDS011;22846;42.654;23.314;2022-11-30T15:10:11;34.85;;;26.30;;
31336;SDS011;22846;42.654;23.314;2022-11-30T15:12:43;32.70;;;24.35;;
31336;SDS011;22846;42.654;23.314;2022-11-30T15:20:18;29.33;;;21.27;;
31336;SDS011;22846;42.654;23.314;2022-11-30T15:22:50;28.60;;;20.73;;
31336;SDS011;22846;42.654;23.314;2022-11-30T15:25:16;30.23;;;20.65;;
31336;SDS011;22846;42.654;23.314;2022-11-30T15:27:43;31.33;;;19.73;;
31336;SDS011;22846;42.654;23.314;2022-11-30T15:30:12;28.52;;;19.25;;
31336;SDS011;22846;42.654;23.314;2022-11-30T15:32:42;23.85;;;15.77;;
31336;SDS011;22846;42.654;23.314;2022-11-30T15:35:16;24.83;;;16.10;;
31336;SDS011;22846;42.654;23.314;2022-11-30T15:37:43;23.85;;;15.88;;
31336;SDS011;22846;42.654;23.314;2022-11-30T15:40:09;21.23;;;15.88;;
31336;SDS011;22846;42.654;23.314;2022-11-30T15:42:39;26.38;;;15.25;;
31336;SDS011;22846;42.654;23.314;2022-11-30T15:45:19;24.27;;;15.07;;
31336;SDS011;22846;42.654;23.314;2022-11-30T15:47:48;17.33;;;13.17;;
31336;SDS011;22846;42.654;23.314;2022-11-30T15:50:31;13.02;;;9.50;;
31336;SDS011;22846;42.654;23.314;2022-11-30T15:53:00;18.85;;;11.98;;
31336;SDS011;22846;42.654;23.314;2022-11-30T15:55:51;18.25;;;11.00;;
31336;SDS011;22846;42.654;23.314;2022-11-30T16:06:20;13.80;;;8.90;;
31336;SDS011;22846;42.654;23.314;2022-11-30T16:08:47;12.07;;;8.70;;
31336;SDS011;22846;42.654;23.314;2022-11-30T16:11:14;17.23;;;7.60;;
31336;SDS011;22846;42.654;23.314;2022-11-30T16:13:41;11.88;;;7.78;;
31336;SDS011;22846;42.654;23.314;2022-11-30T16:16:16;11.10;;;7.25;;
31336;SDS011;22846;42.654;23.314;2022-11-30T16:18:44;12.18;;;7.35;;
31336;SDS011;22846;42.654;23.314;2022-11-30T16:21:11;18.15;;;7.30;;
31336;SDS011;22846;42.654;23.314;2022-11-30T16:23:40;10.80;;;6.30;;
31336;SDS011;22846;42.654;23.314;2022-11-30T16:26:13;10.20;;;6.43;;
31336;SDS011;22846;42.654;23.314;2022-11-30T16:28:41;11.05;;;6.68;;
31336;SDS011;22846;42.654;23.314;2022-11-30T16:31:10;11.27;;;6.43;;
31336;SDS011;22846;42.654;23.314;2022-11-30T16:33:39;12.02;;;6.60;;
31336;SDS011;22846;42.654;23.314;2022-11-30T16:36:11;10.70;;;6.45;;
31336;SDS011;22846;42.654;23.314;2022-11-30T16:38:39;10.43;;;5.88;;
31336;SDS011;22846;42.654;23.314;2022-11-30T16:43:40;11.82;;;5.40;;
31336;SDS011;22846;42.654;23.314;2022-11-30T16:46:13;12.25;;;6.35;;
31336;SDS011;22846;42.654;23.314;2022-11-30T16:48:43;10.05;;;5.97;;
31336;SDS011;22846;42.654;23.314;2022-11-30T16:53:49;12.00;;;6.03;;
31336;SDS011;22846;42.654;23.314;2022-11-30T16:56:15;9.35;;;5.75;;
31336;SDS011;22846;42.654;23.314;2022-11-30T16:58:41;9.20;;;5.78;;
31336;SDS011;22846;42.654;23.314;2022-11-30T17:01:17;9.75;;;5.60;;
31336;SDS011;22846;42.654;23.314;2022-11-30T17:03:47;8.68;;;5.47;;
31336;SDS011;22846;42.654;23.314;2022-11-30T17:06:16;8.00;;;4.85;;
31336;SDS011;22846;42.654;23.314;2022-11-30T17:08:43;6.63;;;4.80;;
31336;SDS011;22846;42.654;23.314;2022-11-30T17:11:15;7.32;;;5.05;;